Hunnicutt, Tim
United StatesManBorn 19512001 – 2013Runner id 116734
Events
24
2001 – 2013
Best pace
8.231
km/h · 2003
Best finish
21st
of 67 · 2003
Distance raced
1,363
km · splits not double-counted
Pace over time
km/h · higher is faster
Pace over time: 24 races from 2001 to 2013, ranging from 6.25 to 9.31 kilometres per hour, where higher is faster. A second, age-graded series is drawn above it; the gap between the two is the age credit.
- Actual pace
- Age-graded pace
Results
| Date | Event | Distance | Result | Pace km/h | Placing |
|---|---|---|---|---|---|
| 2001-09-22 | Cle Elum Ridge 50kUnited States | 50km | 7:25:42 h | 6.731 | 67/108 |
| 2002-03-30 | Baker Lake 50K Ultra Trail RunUnited States | 50km | 6:56:34 h | 7.202 | 19/47 |
| 2002-09-21 | Cle Elum Ridge 50kUnited States | 50km | 6:47:50 h | 7.356 | 46/99 |
| 2002-10-26 | Baker Lake 50K Ultra Trail RunUnited States | 50km | 6:15:50 h | 7.982 | 27/55 |
| 2003-03-15 | Chuckanut 50KUnited States | 50km | 6:26:05 h | 7.770 | 101/165 |
| 2003-08-02 | 50km | 6:04:28 h | 8.231 | 21/67 | |
| 2003-09-20 | Cle Elum Ridge 50kUnited States | 50km | 7:03:24 h | 7.085 | 51/89 |
| 2004-01-10 | Bridle Trails Winter Running FestivalUnited States | 50km | 6:08:00 h | 8.152 | 20/24 |
| 2004-07-31 | 50mi | 10:54:26 h | 7.377 | 50/79 | |
| 2004-09-18 | Cle Elum Ridge 50kUnited States | 50km | 7:08:21 h | 7.004 | 41/97 |
| 2004-11-13 | 50km | 6:30:28 h | 7.683 | 15/18 | |
| 2005-04-09 | Diez Vista 50K Trail RunCanada | 50km | 7:34:05 h | 6.607 | 111/129 |
| 2005-07-09 | Let's Climb a MountainUnited States | 34.3mi | 7:15:30 h | 7.605 | 6/13 |
| 2005-07-30 | 50mi | 10:53:59 h | 7.383 | 54/88 | |
| 2005-09-19 | Cle Elum Ridge 50kUnited States | 50km | 7:23:49 h | 6.760 | 51/69 |
| 2005-10-01 | Baker Lake 50K Ultra Trail RunUnited States | 50km | 6:34:45 h | 7.600 | 62/101 |
| 2006-05-13 | 50km | 6:56:02 h | 7.211 | 114/153 | |
| 2006-07-29 | 50mi | 12:10:48 h | 6.607 | 105/124 | |
| 2007-05-19 | Watershed Preserve 12 Hr Trail RaceUnited States | 12h | 81.336 km | 6.778 | 22/56 |
| 2007-09-15 | 50km | 7:58:56 h | 6.264 | 69/86 | |
| 2008-02-16 | 50km | 7:02:18 h | 7.104 | 33/59 | |
| 2008-03-15 | Chuckanut 50KUnited States | 50km | 7:31:23 h | 6.646 | 267/294 |
| 2012-04-28 | 55km | 7:31:58 h | 7.301 | 35/66 | |
| 2013-07-13 | 50mi | 12:53:00 h | 6.246 | 123/127 |